createdAt,value
2019-01-12T00:00:05.404Z,1.70
2019-01-12T00:01:05.461Z,1.70
2019-01-12T00:02:10.580Z,1.70
2019-01-12T00:03:05.651Z,1.70
2019-01-12T00:04:07.224Z,1.70
2019-01-12T00:05:07.729Z,1.70
2019-01-12T00:06:04.733Z,1.70
2019-01-12T00:07:04.937Z,1.70
2019-01-12T00:08:10.160Z,1.70
2019-01-12T00:09:05.125Z,1.70
2019-01-12T00:10:07.863Z,1.70
2019-01-12T00:11:07.478Z,1.70
2019-01-12T00:12:05.461Z,1.70
2019-01-12T00:13:08.117Z,1.70
2019-01-12T00:14:07.560Z,1.70
2019-01-12T00:15:13.154Z,1.70
2019-01-12T00:16:07.635Z,1.70
2019-01-12T00:17:08.203Z,1.70
2019-01-12T00:18:05.216Z,1.70
2019-01-12T00:19:07.880Z,1.70
2019-01-12T00:20:04.960Z,1.70
2019-01-12T00:21:07.749Z,1.70
2019-01-12T00:22:04.736Z,1.70
2019-01-12T00:23:04.919Z,1.70
2019-01-12T00:24:07.713Z,1.80
2019-01-12T00:25:04.796Z,1.80
2019-01-12T00:26:04.860Z,1.80
2019-01-12T00:27:07.563Z,1.80
2019-01-12T00:28:08.046Z,1.70
2019-01-12T00:29:05.059Z,1.80
2019-01-12T00:30:08.159Z,1.80
2019-01-12T00:31:07.661Z,1.80
2019-01-12T00:32:10.749Z,1.80
2019-01-12T00:33:04.885Z,1.70
2019-01-12T00:34:07.827Z,1.70
2019-01-12T00:35:04.832Z,1.80
2019-01-12T00:36:04.928Z,1.80
2019-01-12T00:37:07.505Z,1.80
2019-01-12T00:38:05.576Z,1.80
2019-01-12T00:39:09.769Z,1.80
2019-01-12T00:40:07.414Z,1.80
2019-01-12T00:41:07.711Z,1.80
2019-01-12T00:42:05.670Z,1.80
2019-01-12T00:43:04.904Z,1.80
2019-01-12T00:44:07.322Z,1.80
2019-01-12T00:45:05.296Z,1.80
2019-01-12T00:46:05.592Z,1.80
2019-01-12T00:47:05.681Z,1.80
2019-01-12T00:48:04.790Z,1.80
2019-01-12T00:49:07.606Z,1.80
2019-01-12T00:50:05.737Z,1.80
2019-01-12T00:51:07.453Z,1.80
2019-01-12T00:52:10.654Z,1.80
2019-01-12T00:53:05.625Z,1.80
2019-01-12T00:54:04.744Z,1.80
2019-01-12T00:55:04.813Z,1.80
2019-01-12T00:56:04.876Z,1.80
2019-01-12T00:57:07.475Z,1.80
2019-01-12T00:58:05.473Z,1.80
2019-01-12T00:59:05.640Z,1.90
2019-01-12T01:00:07.268Z,1.80
2019-01-12T01:01:05.224Z,1.90
2019-01-12T01:02:05.373Z,1.90
2019-01-12T01:03:05.463Z,1.90
2019-01-12T01:04:08.020Z,1.90
2019-01-12T01:05:10.071Z,1.90
2019-01-12T01:06:05.037Z,1.90
2019-01-12T01:07:05.130Z,1.90
2019-01-12T01:08:05.111Z,1.90
2019-01-12T01:09:05.146Z,1.90
2019-01-12T01:10:05.255Z,1.90
2019-01-12T01:11:07.916Z,1.80
2019-01-12T01:12:04.788Z,1.80
2019-01-12T01:13:04.851Z,1.90
2019-01-12T01:14:07.393Z,1.90
2019-01-12T01:15:07.930Z,1.80
2019-01-12T01:16:04.853Z,1.90
2019-01-12T01:17:07.489Z,1.90
2019-01-12T01:18:05.550Z,1.80
2019-01-12T01:19:05.633Z,1.90
2019-01-12T01:20:05.616Z,1.90
2019-01-12T01:21:05.766Z,1.90
2019-01-12T01:22:04.862Z,1.90
2019-01-12T01:23:07.433Z,1.90
2019-01-12T01:24:07.873Z,1.90
2019-01-12T01:25:07.304Z,1.90
2019-01-12T01:26:05.199Z,1.90
2019-01-12T01:27:05.323Z,1.90
2019-01-12T01:28:05.361Z,1.90
2019-01-12T01:29:05.444Z,1.90
2019-01-12T01:30:04.865Z,1.90
2019-01-12T01:31:05.043Z,1.90
2019-01-12T01:32:05.195Z,1.90
2019-01-12T01:33:05.184Z,1.90
2019-01-12T01:34:07.904Z,1.90
2019-01-12T01:35:04.907Z,1.90
2019-01-12T01:36:04.973Z,1.90
2019-01-12T01:37:07.546Z,1.90
2019-01-12T01:38:05.527Z,1.90
2019-01-12T01:39:08.210Z,1.90
2019-01-12T01:40:07.852Z,1.90
2019-01-12T01:41:04.805Z,1.90
2019-01-12T01:42:07.486Z,1.90
2019-01-12T01:43:07.867Z,1.90
2019-01-12T01:44:07.445Z,1.90
2019-01-12T01:45:08.010Z,1.90
2019-01-12T01:46:05.096Z,1.90
2019-01-12T01:47:05.318Z,1.90
2019-01-12T01:48:05.545Z,1.90
2019-01-12T01:49:05.669Z,1.90
2019-01-12T01:50:05.157Z,1.90
2019-01-12T01:51:07.842Z,1.90
2019-01-12T01:52:07.312Z,1.90
2019-01-12T01:53:05.254Z,1.90
2019-01-12T01:54:07.936Z,2.00
2019-01-12T01:55:04.896Z,1.90
2019-01-12T01:56:04.980Z,1.90
2019-01-12T01:57:10.195Z,2.00
2019-01-12T01:58:07.805Z,2.00
2019-01-12T01:59:07.449Z,2.00
2019-01-12T02:00:07.863Z,1.90
2019-01-12T02:01:09.964Z,2.00
2019-01-12T02:02:07.585Z,1.90
2019-01-12T02:03:05.559Z,2.00
2019-01-12T02:04:05.639Z,1.90
2019-01-12T02:05:04.690Z,1.90
2019-01-12T02:06:04.721Z,2.00
2019-01-12T02:07:07.393Z,1.90
2019-01-12T02:08:10.456Z,1.90
2019-01-12T02:09:05.418Z,1.90
2019-01-12T02:10:05.515Z,1.90
2019-01-12T02:11:05.547Z,1.90
2019-01-12T02:12:05.640Z,1.90
2019-01-12T02:13:04.935Z,1.90
2019-01-12T02:14:05.049Z,1.90
2019-01-12T02:15:05.166Z,1.90
2019-01-12T02:16:05.251Z,1.90
2019-01-12T02:17:07.915Z,1.90
2019-01-12T02:18:04.933Z,1.90
2019-01-12T02:19:07.454Z,1.90
2019-01-12T02:20:05.505Z,1.90
2019-01-12T02:21:05.732Z,1.90
2019-01-12T02:22:04.816Z,1.90
2019-01-12T02:23:05.005Z,1.90
2019-01-12T02:24:07.644Z,1.90
2019-01-12T02:25:05.584Z,1.90
2019-01-12T02:26:08.159Z,1.90
2019-01-12T02:27:05.180Z,1.90
2019-01-12T02:28:07.800Z,2.00
2019-01-12T02:29:04.777Z,2.00
2019-01-12T02:30:07.666Z,2.00
2019-01-12T02:31:05.700Z,2.00
2019-01-12T02:32:04.784Z,2.00
2019-01-12T02:33:07.366Z,2.00
2019-01-12T02:34:05.326Z,2.00
2019-01-12T02:35:05.505Z,2.00
2019-01-12T02:36:05.700Z,1.90
2019-01-12T02:37:04.834Z,2.00
2019-01-12T02:38:04.864Z,2.00
2019-01-12T02:39:04.915Z,2.00
2019-01-12T02:40:05.004Z,2.00
2019-01-12T02:41:05.117Z,2.00
2019-01-12T02:42:10.450Z,2.00
2019-01-12T02:43:05.349Z,2.00
2019-01-12T02:44:05.392Z,2.00
2019-01-12T02:45:05.540Z,2.00
2019-01-12T02:46:05.644Z,2.00
2019-01-12T02:47:04.774Z,2.00
2019-01-12T02:48:10.139Z,2.00
2019-01-12T02:49:07.717Z,2.00
2019-01-12T02:50:08.330Z,2.00
2019-01-12T02:51:05.332Z,2.00
2019-01-12T02:52:05.628Z,2.00
2019-01-12T02:53:07.358Z,2.00
2019-01-12T02:54:05.249Z,2.00
2019-01-12T02:55:08.818Z,2.00
2019-01-12T02:56:05.071Z,2.00
2019-01-12T02:57:05.132Z,2.00
2019-01-12T02:58:05.187Z,2.00
2019-01-12T02:59:05.220Z,2.00
2019-01-12T03:00:05.293Z,2.00
2019-01-12T03:01:07.863Z,2.00
2019-01-12T03:02:04.805Z,2.00
2019-01-12T03:03:04.951Z,2.00
2019-01-12T03:04:07.739Z,2.00
2019-01-12T03:05:04.721Z,2.00
2019-01-12T03:06:07.506Z,2.00
2019-01-12T03:07:08.091Z,2.00
2019-01-12T03:08:05.154Z,1.90
2019-01-12T03:09:05.282Z,2.00
2019-01-12T03:10:07.856Z,2.00
2019-01-12T03:11:04.799Z,2.00
2019-01-12T03:12:05.200Z,2.00
2019-01-12T03:13:05.375Z,2.00
2019-01-12T03:14:05.585Z,2.00
2019-01-12T03:15:07.354Z,2.00
2019-01-12T03:16:08.162Z,2.00
2019-01-12T03:17:05.091Z,2.00
2019-01-12T03:18:05.175Z,2.00
2019-01-12T03:19:05.439Z,2.00
2019-01-12T03:20:05.630Z,2.00
2019-01-12T03:21:07.274Z,2.00
2019-01-12T03:22:07.845Z,2.00
2019-01-12T03:23:04.793Z,2.00
2019-01-12T03:24:04.851Z,2.00
2019-01-12T03:25:07.467Z,2.00
2019-01-12T03:26:10.514Z,2.00
2019-01-12T03:27:05.642Z,2.00
2019-01-12T03:28:10.010Z,2.00
2019-01-12T03:29:07.490Z,2.00
2019-01-12T03:30:07.957Z,2.00
2019-01-12T03:31:04.892Z,2.00
2019-01-12T03:32:07.613Z,2.00
2019-01-12T03:33:05.691Z,2.00
2019-01-12T03:34:04.918Z,2.00
2019-01-12T03:35:05.037Z,2.00
2019-01-12T03:36:07.657Z,2.00
2019-01-12T03:37:08.087Z,2.00
2019-01-12T03:38:05.010Z,2.00
2019-01-12T03:39:05.216Z,2.00
2019-01-12T03:40:05.548Z,2.00
2019-01-12T03:41:08.305Z,2.00
2019-01-12T03:42:05.317Z,2.00
2019-01-12T03:43:05.074Z,2.00
2019-01-12T03:44:07.699Z,2.00
2019-01-12T03:45:04.786Z,2.00
2019-01-12T03:46:07.447Z,2.00
2019-01-12T03:47:07.983Z,2.00
2019-01-12T03:48:05.032Z,2.00
2019-01-12T03:49:05.199Z,2.00
2019-01-12T03:50:07.881Z,2.00
2019-01-12T03:51:04.887Z,1.90
2019-01-12T03:52:05.010Z,2.00
2019-01-12T03:53:10.218Z,1.90
2019-01-12T03:54:10.154Z,2.00
2019-01-12T03:55:05.054Z,1.90
2019-01-12T03:56:05.229Z,2.00
2019-01-12T03:57:07.871Z,2.00
2019-01-12T03:58:04.810Z,2.00
2019-01-12T03:59:04.983Z,2.00
2019-01-12T04:00:05.164Z,2.00
2019-01-12T04:01:07.865Z,2.00
2019-01-12T04:02:07.418Z,2.00
2019-01-12T04:03:05.360Z,2.00
2019-01-12T04:04:04.778Z,2.00
2019-01-12T04:05:07.498Z,2.00
2019-01-12T04:06:05.466Z,2.00
2019-01-12T04:07:05.607Z,2.00
2019-01-12T04:08:04.726Z,2.00
2019-01-12T04:09:04.803Z,2.00
2019-01-12T04:10:05.483Z,2.00
2019-01-12T04:11:05.621Z,2.00
2019-01-12T04:12:04.829Z,2.00
2019-01-12T04:13:04.957Z,2.00
2019-01-12T04:14:05.084Z,1.90
2019-01-12T04:15:05.340Z,2.00
2019-01-12T04:16:05.357Z,2.00
2019-01-12T04:17:05.470Z,2.00
2019-01-12T04:18:05.608Z,2.00
2019-01-12T04:19:05.644Z,2.00
2019-01-12T04:20:07.295Z,2.00
2019-01-12T04:21:05.293Z,2.00
2019-01-12T04:22:10.586Z,2.00
2019-01-12T04:23:05.724Z,1.90
2019-01-12T04:24:07.413Z,1.90
2019-01-12T04:25:10.615Z,1.90
2019-01-12T04:26:05.469Z,2.00
2019-01-12T04:27:05.644Z,2.00
2019-01-12T04:28:09.974Z,2.00
2019-01-12T04:29:05.028Z,2.00
2019-01-12T04:30:05.378Z,2.00
2019-01-12T04:31:05.456Z,2.00
2019-01-12T04:32:10.607Z,2.00
2019-01-12T04:33:04.731Z,1.90
2019-01-12T04:34:04.804Z,1.90
2019-01-12T04:35:04.891Z,1.90
2019-01-12T04:36:07.529Z,1.90
2019-01-12T04:37:08.075Z,1.90
2019-01-12T04:38:07.560Z,1.90
2019-01-12T04:39:05.617Z,1.90
2019-01-12T04:40:04.706Z,1.90
2019-01-12T04:41:04.701Z,2.00
2019-01-12T04:42:07.413Z,1.90
2019-01-12T04:43:08.067Z,1.90
2019-01-12T04:44:05.097Z,1.90
2019-01-12T04:45:07.895Z,1.90
2019-01-12T04:46:07.426Z,1.90
2019-01-12T04:47:05.555Z,1.90
2019-01-12T04:48:07.203Z,1.90
2019-01-12T04:49:05.093Z,1.90
2019-01-12T04:50:13.252Z,1.90
2019-01-12T04:51:12.897Z,1.90
2019-01-12T04:52:04.845Z,1.90
2019-01-12T04:53:04.935Z,1.90
2019-01-12T04:54:07.536Z,1.90
2019-01-12T04:55:08.174Z,1.90
2019-01-12T04:56:05.184Z,1.90
2019-01-12T04:57:05.250Z,1.90
2019-01-12T04:58:05.343Z,1.90
2019-01-12T04:59:07.983Z,2.00
2019-01-12T05:00:07.452Z,1.90
2019-01-12T05:01:05.560Z,1.90
2019-01-12T05:02:04.708Z,2.00
2019-01-12T05:03:04.784Z,2.00
2019-01-12T05:04:07.528Z,2.00
2019-01-12T05:05:05.547Z,2.00
2019-01-12T05:06:05.648Z,2.00
2019-01-12T05:07:04.759Z,2.00
2019-01-12T05:08:04.962Z,2.00
2019-01-12T05:09:05.127Z,2.00
2019-01-12T05:10:07.790Z,2.00
2019-01-12T05:11:07.274Z,2.00
2019-01-12T05:12:05.179Z,2.00
2019-01-12T05:13:05.241Z,2.00
2019-01-12T05:14:07.993Z,2.00
2019-01-12T05:15:07.478Z,2.00
2019-01-12T05:16:05.414Z,2.00
2019-01-12T05:17:05.530Z,2.00
2019-01-12T05:18:08.172Z,2.00
2019-01-12T05:19:05.303Z,2.00
2019-01-12T05:20:07.939Z,2.00
2019-01-12T05:21:04.894Z,2.00
2019-01-12T05:22:05.242Z,2.00
2019-01-12T05:23:05.338Z,2.00
2019-01-12T05:24:05.398Z,2.10
2019-01-12T05:25:06.104Z,2.00
2019-01-12T05:26:05.163Z,2.00
2019-01-12T05:27:07.829Z,2.10
2019-01-12T05:28:04.986Z,2.10
2019-01-12T05:29:05.158Z,2.10
2019-01-12T05:30:04.727Z,2.10
2019-01-12T05:31:04.784Z,2.10
2019-01-12T05:32:07.403Z,2.10
2019-01-12T05:33:05.264Z,2.10
2019-01-12T05:34:05.435Z,2.10
2019-01-12T05:35:08.069Z,2.00
2019-01-12T05:36:04.994Z,2.10
2019-01-12T05:37:05.119Z,2.00
2019-01-12T05:38:05.414Z,2.00
2019-01-12T05:39:08.112Z,2.00
2019-01-12T05:40:05.129Z,2.00
2019-01-12T05:41:05.216Z,2.00
2019-01-12T05:42:05.302Z,2.00
2019-01-12T05:43:05.433Z,2.00
2019-01-12T05:44:05.503Z,2.00
2019-01-12T05:45:07.269Z,2.00
2019-01-12T05:46:05.329Z,2.00
2019-01-12T05:47:08.021Z,2.00
2019-01-12T05:48:04.995Z,2.00
2019-01-12T05:49:05.061Z,2.00
2019-01-12T05:50:05.217Z,2.00
2019-01-12T05:51:05.386Z,2.00
2019-01-12T05:52:05.522Z,2.00
2019-01-12T05:53:10.800Z,2.00
2019-01-12T05:54:04.915Z,2.00
2019-01-12T05:55:04.960Z,2.00
2019-01-12T05:56:05.023Z,2.10
2019-01-12T05:57:05.103Z,2.00
2019-01-12T05:58:07.676Z,2.10
2019-01-12T05:59:05.778Z,2.10
2019-01-12T06:00:05.338Z,2.10
2019-01-12T06:01:08.896Z,2.10
2019-01-12T06:02:04.977Z,2.10
2019-01-12T06:03:07.540Z,2.10
2019-01-12T06:04:05.407Z,2.10
2019-01-12T06:05:08.101Z,2.10
2019-01-12T06:06:07.545Z,2.10
2019-01-12T06:07:08.074Z,2.10
2019-01-12T06:08:08.213Z,2.10
2019-01-12T06:09:05.184Z,2.10
2019-01-12T06:10:07.777Z,2.10
2019-01-12T06:11:04.764Z,2.10
2019-01-12T06:12:04.947Z,2.10
2019-01-12T06:13:07.634Z,2.10
2019-01-12T06:14:08.148Z,2.10
2019-01-12T06:15:05.123Z,2.20
2019-01-12T06:16:07.745Z,2.20
2019-01-12T06:17:07.273Z,2.20
2019-01-12T06:18:07.720Z,2.20
2019-01-12T06:19:08.164Z,2.20
2019-01-12T06:20:05.135Z,2.20
2019-01-12T06:21:05.196Z,2.20
2019-01-12T06:22:05.248Z,2.20
2019-01-12T06:23:05.306Z,2.20
2019-01-12T06:24:05.527Z,2.20
2019-01-12T06:25:05.798Z,2.20
2019-01-12T06:26:07.467Z,2.20
2019-01-12T06:27:05.549Z,2.20
2019-01-12T06:28:08.203Z,2.20
2019-01-12T06:29:05.126Z,2.20
2019-01-12T06:30:05.681Z,2.20
2019-01-12T06:31:04.949Z,2.20
2019-01-12T06:32:07.576Z,2.20
2019-01-12T06:33:05.516Z,2.20
2019-01-12T06:34:05.714Z,2.20
2019-01-12T06:35:04.943Z,2.20
2019-01-12T06:36:07.522Z,2.20
2019-01-12T06:37:08.076Z,2.20
2019-01-12T06:38:10.028Z,2.20
2019-01-12T06:39:12.547Z,2.20
2019-01-12T06:40:05.477Z,2.20
2019-01-12T06:41:05.493Z,2.20
2019-01-12T06:42:10.573Z,2.20
2019-01-12T06:43:05.553Z,2.20
2019-01-12T06:44:08.249Z,2.20
2019-01-12T06:45:10.332Z,2.20
2019-01-12T06:46:07.762Z,2.20
2019-01-12T06:47:04.703Z,2.20
2019-01-12T06:48:04.805Z,2.20
2019-01-12T06:49:05.011Z,2.20
2019-01-12T06:50:05.207Z,2.20
2019-01-12T06:51:05.445Z,2.20
2019-01-12T06:52:05.560Z,2.20
2019-01-12T06:53:04.723Z,2.20
2019-01-12T06:54:04.918Z,2.20
2019-01-12T06:55:05.363Z,2.20
2019-01-12T06:56:10.776Z,2.20
2019-01-12T06:57:05.080Z,2.10
2019-01-12T06:58:05.251Z,2.10
2019-01-12T06:59:05.284Z,2.10
2019-01-12T07:00:05.377Z,2.10
2019-01-12T07:01:05.419Z,2.10
2019-01-12T07:02:05.672Z,2.10
2019-01-12T07:03:07.468Z,2.10
2019-01-12T07:04:10.476Z,2.10
2019-01-12T07:05:05.381Z,2.10
2019-01-12T07:06:08.120Z,2.10
2019-01-12T07:07:05.031Z,2.10
2019-01-12T07:08:07.701Z,2.10
2019-01-12T07:09:04.712Z,2.10
2019-01-12T07:10:07.235Z,2.10
2019-01-12T07:11:05.164Z,2.10
2019-01-12T07:12:05.310Z,2.10
2019-01-12T07:13:05.420Z,2.10
2019-01-12T07:14:05.563Z,2.10
2019-01-12T07:15:05.660Z,2.10
2019-01-12T07:16:04.838Z,2.10
2019-01-12T07:17:07.692Z,2.10
2019-01-12T07:18:08.914Z,2.10
2019-01-12T07:19:05.149Z,2.10
2019-01-12T07:20:05.157Z,2.10
2019-01-12T07:21:07.809Z,2.10
2019-01-12T07:22:07.383Z,2.10
2019-01-12T07:23:05.315Z,2.10
2019-01-12T07:24:05.389Z,2.10
2019-01-12T07:25:05.395Z,2.10
2019-01-12T07:26:05.442Z,2.10
2019-01-12T07:27:08.135Z,2.10
2019-01-12T07:28:07.605Z,2.10
2019-01-12T07:29:05.571Z,2.10
2019-01-12T07:30:05.088Z,2.10
2019-01-12T07:31:07.735Z,2.10
2019-01-12T07:32:05.726Z,2.10
2019-01-12T07:33:04.980Z,2.10
2019-01-12T07:34:05.226Z,2.10
2019-01-12T07:35:12.970Z,2.10
2019-01-12T07:36:04.928Z,2.10
2019-01-12T07:37:05.014Z,2.10
2019-01-12T07:38:05.290Z,2.10
2019-01-12T07:39:05.370Z,2.10
2019-01-12T07:40:05.457Z,2.10
2019-01-12T07:41:05.652Z,2.10
2019-01-12T07:42:07.319Z,2.10
2019-01-12T07:43:07.898Z,2.10
2019-01-12T07:44:07.407Z,2.10
2019-01-12T07:45:05.398Z,2.10
2019-01-12T07:46:05.403Z,2.10
2019-01-12T07:47:08.085Z,2.10
2019-01-12T07:48:07.514Z,2.10
2019-01-12T07:49:08.099Z,2.10
2019-01-12T07:50:07.712Z,2.10
2019-01-12T07:51:04.767Z,2.10
2019-01-12T07:52:04.987Z,2.10
2019-01-12T07:53:05.212Z,2.10
2019-01-12T07:54:05.392Z,2.10
2019-01-12T07:55:05.528Z,2.10
2019-01-12T07:56:08.188Z,2.10
2019-01-12T07:57:05.302Z,2.10
2019-01-12T07:58:07.937Z,2.10
2019-01-12T07:59:07.341Z,2.10
2019-01-12T08:00:07.805Z,2.20
2019-01-12T08:01:04.780Z,2.10
2019-01-12T08:02:10.026Z,2.10
2019-01-12T08:03:12.669Z,2.20
2019-01-12T08:04:05.636Z,2.10
2019-01-12T08:05:09.856Z,2.20
2019-01-12T08:06:07.457Z,2.20
2019-01-12T08:07:05.454Z,2.20
2019-01-12T08:08:10.567Z,2.20
2019-01-12T08:09:05.590Z,2.20
2019-01-12T08:10:04.675Z,2.20
2019-01-12T08:11:07.396Z,2.20
2019-01-12T08:12:10.405Z,2.20
2019-01-12T08:13:05.321Z,2.20
2019-01-12T08:14:05.429Z,2.20
2019-01-12T08:15:05.480Z,2.20
2019-01-12T08:16:05.528Z,2.30
2019-01-12T08:17:05.740Z,2.30
2019-01-12T08:18:04.944Z,2.30
2019-01-12T08:19:05.148Z,2.30
2019-01-12T08:20:10.239Z,2.40
2019-01-12T08:21:05.169Z,2.30
2019-01-12T08:22:07.748Z,2.40
2019-01-12T08:23:05.727Z,2.40
2019-01-12T08:24:07.492Z,2.40
2019-01-12T08:25:05.326Z,2.40
2019-01-12T08:26:05.493Z,2.40
2019-01-12T08:27:08.215Z,2.40
2019-01-12T08:28:10.292Z,2.50
2019-01-12T08:29:05.253Z,2.50
2019-01-12T08:30:07.319Z,2.50
2019-01-12T08:31:07.815Z,2.50
2019-01-12T08:32:08.190Z,2.50
2019-01-12T08:33:07.709Z,2.60
2019-01-12T08:34:05.707Z,2.50
2019-01-12T08:35:04.864Z,2.60
2019-01-12T08:36:04.973Z,2.60
2019-01-12T08:37:05.125Z,2.60
2019-01-12T08:38:05.312Z,2.60
2019-01-12T08:39:07.977Z,2.60
2019-01-12T08:40:07.626Z,2.70
2019-01-12T08:41:08.154Z,2.70
2019-01-12T08:42:05.094Z,2.70
2019-01-12T08:43:05.222Z,2.70
2019-01-12T08:44:05.357Z,2.70
2019-01-12T08:45:05.638Z,2.70
2019-01-12T08:46:04.768Z,2.80
2019-01-12T08:47:04.842Z,2.80
2019-01-12T08:48:07.541Z,2.80
2019-01-12T08:49:05.549Z,2.80
2019-01-12T08:50:05.040Z,2.80
2019-01-12T08:51:07.231Z,2.90
2019-01-12T08:52:05.118Z,2.90
2019-01-12T08:53:05.188Z,2.90
2019-01-12T08:54:07.778Z,2.90
2019-01-12T08:55:07.308Z,3.00
2019-01-12T08:56:05.281Z,2.90
2019-01-12T08:57:05.315Z,3.00
2019-01-12T08:58:05.000Z,3.00
2019-01-12T08:59:07.837Z,3.10
2019-01-12T09:00:04.958Z,3.00
2019-01-12T09:01:05.659Z,3.00
2019-01-12T09:02:10.050Z,3.10
2019-01-12T09:03:05.011Z,3.10
2019-01-12T09:04:05.206Z,3.10
2019-01-12T09:05:08.054Z,3.20
2019-01-12T09:06:05.103Z,3.20
2019-01-12T09:07:05.287Z,3.20
2019-01-12T09:08:05.435Z,3.20
2019-01-12T09:09:05.843Z,3.20
2019-01-12T09:10:10.381Z,3.20
2019-01-12T09:11:07.513Z,3.20
2019-01-12T09:12:05.594Z,3.20
2019-01-12T09:13:07.305Z,3.30
2019-01-12T09:14:07.945Z,3.30
2019-01-12T09:15:04.910Z,3.20
2019-01-12T09:16:04.925Z,3.30
2019-01-12T09:17:07.603Z,3.30
2019-01-12T09:18:05.570Z,3.30
2019-01-12T09:19:08.192Z,3.30
2019-01-12T09:20:05.138Z,3.30
2019-01-12T09:21:05.339Z,3.30
2019-01-12T09:22:08.037Z,3.30
2019-01-12T09:23:05.025Z,3.30
2019-01-12T09:24:10.322Z,3.30
2019-01-12T09:25:05.312Z,3.30
2019-01-12T09:26:05.404Z,3.40
2019-01-12T09:27:08.062Z,3.40
2019-01-12T09:28:05.089Z,3.40
2019-01-12T09:29:05.146Z,3.40
2019-01-12T09:30:05.237Z,3.40
2019-01-12T09:31:10.549Z,3.40
2019-01-12T09:32:08.151Z,3.50
2019-01-12T09:33:05.243Z,3.40
2019-01-12T09:34:05.476Z,3.50
2019-01-12T09:35:05.561Z,3.50
2019-01-12T09:36:04.710Z,3.50
2019-01-12T09:37:04.869Z,3.40
2019-01-12T09:38:04.982Z,3.50
2019-01-12T09:39:07.595Z,3.50
2019-01-12T09:40:05.553Z,3.50
2019-01-12T09:41:05.651Z,3.50
2019-01-12T09:42:09.830Z,3.50
2019-01-12T09:43:07.291Z,3.60
2019-01-12T09:44:07.676Z,3.60
2019-01-12T09:45:05.742Z,3.60
2019-01-12T09:46:04.931Z,3.60
2019-01-12T09:47:05.092Z,3.60
2019-01-12T09:48:07.817Z,3.60
2019-01-12T09:49:07.275Z,3.70
2019-01-12T09:50:05.474Z,3.60
2019-01-12T09:51:05.602Z,3.70
2019-01-12T09:52:04.702Z,3.70
2019-01-12T09:53:07.419Z,3.70
2019-01-12T09:54:05.341Z,3.70
2019-01-12T09:55:05.476Z,3.70
2019-01-12T09:56:05.530Z,3.70
2019-01-12T09:57:05.587Z,3.80
2019-01-12T09:58:07.422Z,3.80
2019-01-12T09:59:07.946Z,3.80
2019-01-12T10:00:04.852Z,3.80
2019-01-12T10:01:05.172Z,3.80
2019-01-12T10:02:08.129Z,3.90
2019-01-12T10:03:05.152Z,3.90
2019-01-12T10:04:05.217Z,3.90
2019-01-12T10:05:07.801Z,3.90
2019-01-12T10:06:07.743Z,4.00
2019-01-12T10:07:07.362Z,3.90
2019-01-12T10:08:07.925Z,3.90
2019-01-12T10:09:04.880Z,3.90
2019-01-12T10:10:04.967Z,4.00
2019-01-12T10:11:07.526Z,4.00
2019-01-12T10:12:05.435Z,4.00
2019-01-12T10:13:05.546Z,3.90
2019-01-12T10:14:08.135Z,4.00
2019-01-12T10:15:05.258Z,4.00
2019-01-12T10:16:07.932Z,4.00
2019-01-12T10:17:05.118Z,4.10
2019-01-12T10:18:07.767Z,4.10
2019-01-12T10:19:04.814Z,4.10
2019-01-12T10:20:07.487Z,4.10
2019-01-12T10:21:07.955Z,4.10
2019-01-12T10:22:07.384Z,4.10
2019-01-12T10:23:10.590Z,4.10
2019-01-12T10:24:08.132Z,4.20
2019-01-12T10:25:05.123Z,4.20
2019-01-12T10:26:05.197Z,4.10
2019-01-12T10:27:05.427Z,4.10
2019-01-12T10:28:05.590Z,4.20
2019-01-12T10:29:04.720Z,4.20
2019-01-12T10:30:07.749Z,4.20
2019-01-12T10:31:04.694Z,4.20
2019-01-12T10:32:04.911Z,4.20
2019-01-12T10:33:05.043Z,4.20
2019-01-12T10:34:05.252Z,4.20
2019-01-12T10:35:07.846Z,4.20
2019-01-12T10:36:04.872Z,4.20
2019-01-12T10:37:10.147Z,4.20
2019-01-12T10:38:07.678Z,4.20
2019-01-12T10:39:05.619Z,4.20
2019-01-12T10:40:09.908Z,4.20
2019-01-12T10:41:07.415Z,4.20
2019-01-12T10:42:05.391Z,4.10
2019-01-12T10:43:10.656Z,4.10
2019-01-12T10:44:05.747Z,4.10
2019-01-12T10:45:04.926Z,4.10
2019-01-12T10:46:05.058Z,4.10
2019-01-12T10:47:05.236Z,4.10
2019-01-12T10:48:05.467Z,4.10
2019-01-12T10:49:05.707Z,4.10
2019-01-12T10:50:05.099Z,4.10
2019-01-12T10:51:05.347Z,4.10
2019-01-12T10:52:08.044Z,4.10
2019-01-12T10:53:05.147Z,4.10
2019-01-12T10:54:05.325Z,4.10
2019-01-12T10:55:07.956Z,4.10
2019-01-12T10:56:04.976Z,4.10
2019-01-12T10:57:05.704Z,4.20
2019-01-12T10:58:05.142Z,4.10
2019-01-12T10:59:07.830Z,4.10
2019-01-12T11:00:04.926Z,4.10
2019-01-12T11:01:07.554Z,4.10
2019-01-12T11:02:05.495Z,4.10
2019-01-12T11:03:05.687Z,4.10
2019-01-12T11:04:04.784Z,4.20
2019-01-12T11:05:07.435Z,4.10
2019-01-12T11:06:07.988Z,4.10
2019-01-12T11:07:05.273Z,4.10
2019-01-12T11:08:07.409Z,4.10
2019-01-12T11:09:05.487Z,4.10
2019-01-12T11:10:08.254Z,4.10
2019-01-12T11:11:07.989Z,4.10
2019-01-12T11:12:04.927Z,4.10
2019-01-12T11:13:05.011Z,4.10
2019-01-12T11:14:10.195Z,4.10
2019-01-12T11:15:05.165Z,4.10
2019-01-12T11:16:07.894Z,4.10
2019-01-12T11:17:04.937Z,4.10
2019-01-12T11:18:07.541Z,4.10
2019-01-12T11:19:05.489Z,4.00
2019-01-12T11:20:05.571Z,4.00
2019-01-12T11:21:07.520Z,4.00
2019-01-12T11:22:05.664Z,4.10
2019-01-12T11:23:07.364Z,4.00
2019-01-12T11:24:05.479Z,4.00
2019-01-12T11:25:05.563Z,4.00
2019-01-12T11:26:05.775Z,4.00
2019-01-12T11:27:04.977Z,4.00
2019-01-12T11:28:04.990Z,4.00
2019-01-12T11:29:05.217Z,4.00
2019-01-12T11:30:05.348Z,4.00
2019-01-12T11:31:05.453Z,4.00
2019-01-12T11:32:05.518Z,4.00
2019-01-12T11:33:05.525Z,4.10
2019-01-12T11:34:05.689Z,4.10
2019-01-12T11:35:07.437Z,4.10
2019-01-12T11:36:05.428Z,4.10
2019-01-12T11:37:05.562Z,4.10
2019-01-12T11:38:05.637Z,4.10
2019-01-12T11:39:07.278Z,4.10
2019-01-12T11:40:05.196Z,4.10
2019-01-12T11:41:05.375Z,4.10
2019-01-12T11:42:08.156Z,4.10
2019-01-12T11:43:07.659Z,4.10
2019-01-12T11:44:05.746Z,4.10
2019-01-12T11:45:05.086Z,4.10
2019-01-12T11:46:05.206Z,4.00
2019-01-12T11:47:05.288Z,4.10
2019-01-12T11:48:07.974Z,4.10
2019-01-12T11:49:05.046Z,4.10
2019-01-12T11:50:05.161Z,4.10
2019-01-12T11:51:07.863Z,4.00
2019-01-12T11:52:04.945Z,4.00
2019-01-12T11:53:07.618Z,4.00
2019-01-12T11:54:13.300Z,4.00
2019-01-12T11:55:07.875Z,4.00
2019-01-12T11:56:07.388Z,4.00
2019-01-12T11:57:05.332Z,4.00
2019-01-12T11:58:05.522Z,4.00
2019-01-12T11:59:05.317Z,3.90
2019-01-12T12:00:05.455Z,3.90
2019-01-12T12:01:05.512Z,3.90
2019-01-12T12:02:05.636Z,3.90
2019-01-12T12:03:09.806Z,3.90
2019-01-12T12:04:07.048Z,3.90
2019-01-12T12:05:05.088Z,3.90
2019-01-12T12:06:05.169Z,4.00
2019-01-12T12:07:05.236Z,3.90
2019-01-12T12:08:05.276Z,4.00
2019-01-12T12:09:07.826Z,0.80
2019-01-12T12:10:04.839Z,3.90
2019-01-12T12:11:07.464Z,4.00
2019-01-12T12:12:05.389Z,4.00
2019-01-12T12:13:05.417Z,4.00
2019-01-12T12:14:05.530Z,4.00
2019-01-12T12:15:05.612Z,3.90
2019-01-12T12:16:04.715Z,4.00
2019-01-12T12:17:07.595Z,4.00
2019-01-12T12:18:05.565Z,3.90
2019-01-12T12:19:08.170Z,3.90
2019-01-12T12:20:07.619Z,3.90
2019-01-12T12:21:05.539Z,3.90
2019-01-12T12:22:05.681Z,3.90
2019-01-12T12:23:07.309Z,3.90
2019-01-12T12:24:07.788Z,3.80
2019-01-12T12:25:04.882Z,3.90
2019-01-12T12:26:07.528Z,3.80
2019-01-12T12:27:08.081Z,3.80
2019-01-12T12:28:05.067Z,3.80
2019-01-12T12:29:05.140Z,3.90
2019-01-12T12:30:07.391Z,3.80
2019-01-12T12:31:05.371Z,3.80
2019-01-12T12:32:05.434Z,3.80
2019-01-12T12:33:05.433Z,3.80
2019-01-12T12:34:05.616Z,3.80
2019-01-12T12:35:07.360Z,3.80
2019-01-12T12:36:05.387Z,3.80
2019-01-12T12:37:05.491Z,3.80
2019-01-12T12:38:05.639Z,3.80
2019-01-12T12:39:07.359Z,3.80
2019-01-12T12:40:05.298Z,3.80
2019-01-12T12:41:05.372Z,3.80
2019-01-12T12:42:05.602Z,3.90
2019-01-12T12:43:07.385Z,3.80
2019-01-12T12:44:05.343Z,3.90
2019-01-12T12:45:05.420Z,3.90
2019-01-12T12:46:05.504Z,3.90
2019-01-12T12:47:05.643Z,3.90
2019-01-12T12:48:07.343Z,3.90
2019-01-12T12:49:05.322Z,4.00
2019-01-12T12:50:08.113Z,4.00
2019-01-12T12:51:07.717Z,4.00
2019-01-12T12:52:04.807Z,4.00
2019-01-12T12:53:05.093Z,4.00
2019-01-12T12:54:07.791Z,3.90
2019-01-12T12:55:04.751Z,3.90
2019-01-12T12:56:07.380Z,4.00
2019-01-12T12:57:07.902Z,3.90
2019-01-12T12:58:04.925Z,3.90
2019-01-12T12:59:07.523Z,3.90
2019-01-12T13:00:05.606Z,3.90
2019-01-12T13:01:04.745Z,3.90
2019-01-12T13:02:04.909Z,3.90
2019-01-12T13:03:05.115Z,3.90
2019-01-12T13:04:05.161Z,3.80
2019-01-12T13:05:05.243Z,3.80
2019-01-12T13:06:05.332Z,3.80
2019-01-12T13:07:05.568Z,3.80
2019-01-12T13:08:04.734Z,3.80
2019-01-12T13:09:07.500Z,3.80
2019-01-12T13:10:05.499Z,3.80
2019-01-12T13:11:05.563Z,3.80
2019-01-12T13:12:08.213Z,3.80
2019-01-12T13:13:05.189Z,3.80
2019-01-12T13:14:08.066Z,3.80
2019-01-12T13:15:07.560Z,3.90
2019-01-12T13:16:05.579Z,3.80
2019-01-12T13:17:04.794Z,3.80
2019-01-12T13:18:05.047Z,3.80